Time;durP1;ratioP1;P1;durP2;ratioP2;P2;SDS_P1;SDS_P2;PMS_P1;PMS_P2;Temp;Humidity;BMP_temperature;BMP_pressure;BME280_temperature;BME280_humidity;BME280_pressure;Samples;Min_cycle;Max_cycle;Signal;HPM_P1;HPM_P2
2023/08/22 00:01:34;;;;;;;4.50;2.90;;;19.70;99.90;;;;;;5130693;27;20829;-83
2023/08/22 00:04:01;;;;;;;4.53;2.70;;;20.00;99.90;;;;;;5113228;27;20299;-82
2023/08/22 00:06:28;;;;;;;6.82;3.30;;;19.70;99.90;;;;;;5098279;28;20203;-81
2023/08/22 00:08:55;;;;;;;5.50;3.33;;;20.60;99.90;;;;;;5118708;27;20232;-82
2023/08/22 00:11:22;;;;;;;3.97;2.95;;;19.70;99.90;;;;;;5125039;27;20262;-82
2023/08/22 00:13:49;;;;;;;7.57;3.78;;;19.70;99.90;;;;;;5112304;27;20325;-83
2023/08/22 00:16:16;;;;;;;7.38;3.15;;;19.50;99.90;;;;;;5122560;27;20264;-83
2023/08/22 00:18:42;;;;;;;7.85;3.20;;;19.70;99.90;;;;;;5121796;27;20294;-81
2023/08/22 00:21:09;;;;;;;6.35;3.22;;;20.70;99.90;;;;;;5125623;27;20241;-82
2023/08/22 00:23:36;;;;;;;4.05;2.83;;;20.30;99.90;;;;;;5116785;27;20262;-82
2023/08/22 00:26:03;;;;;;;6.78;3.33;;;19.40;99.90;;;;;;5098165;27;20213;-81
2023/08/22 00:28:30;;;;;;;6.28;3.35;;;19.80;99.90;;;;;;5112148;27;20249;-80
2023/08/22 00:30:56;;;;;;;5.80;3.35;;;20.00;99.90;;;;;;5108889;28;20228;-83
2023/08/22 00:33:23;;;;;;;6.25;3.50;;;19.80;99.90;;;;;;5123216;28;20210;-82
2023/08/22 00:35:50;;;;;;;4.93;3.35;;;20.00;99.90;;;;;;5129832;28;20283;-82
2023/08/22 00:38:17;;;;;;;5.20;3.38;;;19.80;99.90;;;;;;5117089;28;20667;-81
2023/08/22 00:40:43;;;;;;;5.28;3.15;;;19.80;99.90;;;;;;5099167;28;20198;-82
2023/08/22 00:43:11;;;;;;;8.38;3.63;;;20.30;99.90;;;;;;5123328;28;20222;-81
2023/08/22 00:45:38;;;;;;;8.70;3.83;;;19.80;99.90;;;;;;5130339;28;20222;-80
2023/08/22 00:48:05;;;;;;;4.43;3.10;;;19.90;99.90;;;;;;5130548;28;20202;-80
2023/08/22 00:50:32;;;;;;;6.40;2.90;;;19.70;99.90;;;;;;5130392;28;20209;-79
2023/08/22 00:53:00;;;;;;;5.25;3.15;;;19.70;99.90;;;;;;5116449;28;20213;-82
2023/08/22 00:55:27;;;;;;;3.05;2.47;;;19.50;99.90;;;;;;5128578;28;20715;-80
2023/08/22 00:57:54;;;;;;;4.45;2.47;;;19.80;99.90;;;;;;5127517;28;20544;-82
2023/08/22 01:00:21;;;;;;;5.53;2.55;;;19.50;99.90;;;;;;5129806;28;20205;-83
2023/08/22 01:02:49;;;;;;;3.63;2.80;;;19.50;99.90;;;;;;5123066;28;20236;-81
2023/08/22 01:05:16;;;;;;;4.22;2.45;;;19.30;99.90;;;;;;5122466;28;20234;-82
2023/08/22 01:08:10;;;;;;;3.10;2.53;;;19.40;99.90;;;;;;5113887;28;20191;-81
2023/08/22 01:10:41;;;;;;;5.32;2.35;;;19.40;99.90;;;;;;5115393;28;20286;-81
2023/08/22 01:13:14;;;;;;;7.60;2.67;;;19.30;99.90;;;;;;5108769;28;20196;-81
2023/08/22 01:15:42;;;;;;;4.15;2.42;;;19.30;99.90;;;;;;5108915;28;20592;-80
2023/08/22 01:18:11;;;;;;;4.78;2.47;;;19.40;99.90;;;;;;5108588;28;20237;-83
2023/08/22 01:20:38;;;;;;;5.90;2.83;;;19.30;99.90;;;;;;5112815;28;20206;-81
2023/08/22 01:23:05;;;;;;;4.38;2.50;;;19.50;99.90;;;;;;5110917;28;20204;-81
2023/08/22 01:25:31;;;;;;;3.63;2.22;;;19.50;99.90;;;;;;5098055;28;20206;-83
2023/08/22 01:28:20;;;;;;;2.80;2.22;;;19.30;99.90;;;;;;5129853;28;20206;-82
2023/08/22 01:30:53;;;;;;;4.15;2.13;;;19.30;99.90;;;;;;5114934;28;20544;-81
2023/08/22 01:33:34;;;;;;;4.43;2.65;;;19.90;99.90;;;;;;5129772;28;20207;-81
2023/08/22 01:36:03;;;;;;;3.03;2.15;;;19.10;99.90;;;;;;5130248;28;20342;-80
2023/08/22 01:38:31;;;;;;;5.50;2.60;;;19.30;99.90;;;;;;5127100;28;20683;-81
2023/08/22 01:40:58;;;;;;;3.83;2.42;;;19.20;99.90;;;;;;5124756;27;20654;-83
2023/08/22 01:43:25;;;;;;;3.97;2.83;;;20.20;99.90;;;;;;5102217;28;20231;-81
2023/08/22 01:45:52;;;;;;;6.57;2.75;;;19.10;99.90;;;;;;5113093;27;20640;-82
2023/08/22 01:48:19;;;;;;;6.95;2.75;;;19.50;99.90;;;;;;5107198;27;20209;-81
2023/08/22 01:50:46;;;;;;;7.30;2.85;;;19.40;99.90;;;;;;5128142;27;20668;-81
2023/08/22 01:53:13;;;;;;;5.32;3.40;;;19.20;99.90;;;;;;5124246;27;20228;-80
2023/08/22 01:55:40;;;;;;;6.10;3.42;;;19.60;99.90;;;;;;5111162;27;20262;-82
2023/08/22 01:58:10;;;;;;;4.85;3.00;;;19.80;99.90;;;;;;5120376;27;20199;-81
2023/08/22 02:00:41;;;;;;;5.03;3.03;;;19.10;99.90;;;;;;5132506;27;20250;-81
2023/08/22 02:03:08;;;;;;;7.70;3.17;;;19.30;99.90;;;;;;5123385;27;20215;-81
2023/08/22 02:05:35;;;;;;;7.85;3.03;;;19.10;99.90;;;;;;5118724;27;20245;-81
2023/08/22 02:08:03;;;;;;;4.15;3.20;;;19.40;99.90;;;;;;5118971;27;20188;-83
2023/08/22 02:10:31;;;;;;;4.40;3.20;;;19.20;99.90;;;;;;5099600;27;20241;-81
2023/08/22 02:12:58;;;;;;;4.20;3.15;;;19.10;99.90;;;;;;5108403;28;20700;-81
2023/08/22 02:15:24;;;;;;;4.85;2.70;;;19.60;99.90;;;;;;5094005;28;20215;-79
2023/08/22 02:17:51;;;;;;;4.40;2.97;;;19.20;99.90;;;;;;5106133;28;20828;-81
2023/08/22 02:20:22;;;;;;;3.97;2.80;;;19.10;99.90;;;;;;5117629;27;20275;-80
2023/08/22 02:22:49;;;;;;;4.20;2.75;;;19.70;99.90;;;;;;5112132;28;20205;-80
2023/08/22 02:25:16;;;;;;;5.00;2.80;;;19.40;99.90;;;;;;5106076;27;20226;-80
2023/08/22 02:27:43;;;;;;;3.63;2.85;;;19.10;99.90;;;;;;5128657;27;20195;-82
2023/08/22 02:30:10;;;;;;;7.22;2.97;;;18.90;99.90;;;;;;5133380;27;20291;-80
2023/08/22 02:32:37;;;;;;;4.28;2.95;;;19.10;99.90;;;;;;5120673;27;20195;-82
2023/08/22 02:35:04;;;;;;;5.05;2.88;;;19.00;99.90;;;;;;5127260;27;20207;-79
2023/08/22 02:37:31;;;;;;;5.00;3.08;;;18.90;99.90;;;;;;5137511;27;20202;-81
2023/08/22 02:39:58;;;;;;;6.13;3.00;;;19.00;99.90;;;;;;5133718;27;20615;-79
2023/08/22 02:42:25;;;;;;;5.03;3.15;;;19.10;99.90;;;;;;5117174;27;20690;-81
2023/08/22 02:44:51;;;;;;;4.13;3.30;;;19.10;99.90;;;;;;5129745;27;20226;-79
2023/08/22 02:47:19;;;;;;;4.70;2.58;;;19.30;99.90;;;;;;5132226;27;20218;-81
2023/08/22 02:49:46;;;;;;;5.30;3.20;;;20.00;99.90;;;;;;5132133;27;20211;-82
2023/08/22 02:52:13;;;;;;;4.65;2.88;;;18.80;99.90;;;;;;5132603;27;20641;-81
2023/08/22 02:54:39;;;;;;;3.03;2.55;;;18.70;99.90;;;;;;5131611;27;20253;-82
2023/08/22 02:57:07;;;;;;;7.53;2.97;;;19.00;99.90;;;;;;5126437;27;20666;-81
2023/08/22 02:59:34;;;;;;;4.13;2.83;;;18.60;99.90;;;;;;5113412;27;20340;-83
2023/08/22 03:02:01;;;;;;;5.53;3.13;;;18.70;99.90;;;;;;5131811;27;20225;-82
2023/08/22 03:04:28;;;;;;;5.88;2.97;;;18.60;99.90;;;;;;5097091;27;20234;-83
2023/08/22 03:06:55;;;;;;;4.60;2.85;;;18.50;99.90;;;;;;5115617;27;20199;-81
2023/08/22 03:09:22;;;;;;;3.40;2.70;;;18.40;99.90;;;;;;5107262;27;20646;-82
2023/08/22 03:11:49;;;;;;;3.63;2.63;;;18.80;99.90;;;;;;5108810;27;20570;-83
2023/08/22 03:14:15;;;;;;;3.97;2.55;;;18.30;99.90;;;;;;5131361;27;20275;-83
2023/08/22 03:16:42;;;;;;;6.32;2.90;;;18.40;99.90;;;;;;5131629;27;20218;-81
2023/08/22 03:19:09;;;;;;;5.30;3.28;;;18.40;99.90;;;;;;5113059;27;20207;-82
2023/08/22 03:21:36;;;;;;;5.53;3.20;;;18.30;99.90;;;;;;5119027;27;20199;-82
2023/08/22 03:24:03;;;;;;;6.93;3.33;;;18.40;99.90;;;;;;5117551;27;20230;-81
2023/08/22 03:26:30;;;;;;;4.10;3.13;;;18.30;99.90;;;;;;5117697;27;20209;-82
2023/08/22 03:28:57;;;;;;;4.78;3.00;;;18.80;99.90;;;;;;5113270;27;20222;-81
2023/08/22 03:31:26;;;;;;;5.50;2.95;;;18.20;99.90;;;;;;5128199;27;20259;-81
2023/08/22 03:33:53;;;;;;;4.57;2.85;;;18.10;99.90;;;;;;5131129;27;20245;-81
2023/08/22 03:36:20;;;;;;;3.88;3.33;;;18.10;99.90;;;;;;5131508;27;20194;-81
2023/08/22 03:38:50;;;;;;;5.55;3.30;;;19.10;99.90;;;;;;5131553;27;20279;-80
2023/08/22 03:41:18;;;;;;;5.55;3.20;;;18.00;99.90;;;;;;5111249;27;20223;-83
2023/08/22 03:43:45;;;;;;;4.35;3.40;;;18.30;99.90;;;;;;5109658;28;20229;-80
2023/08/22 03:46:12;;;;;;;5.28;3.30;;;17.30;99.90;;;;;;5130484;27;20279;-80
2023/08/22 03:48:50;;;;;;;5.30;3.65;;;17.80;99.90;;;;;;5130547;27;20213;-82
2023/08/22 03:51:17;;;;;;;6.10;3.55;;;17.40;99.90;;;;;;5107502;28;20198;-81
2023/08/22 03:53:44;;;;;;;6.28;3.35;;;18.10;99.90;;;;;;5103056;27;20239;-81
2023/08/22 03:56:10;;;;;;;5.13;3.40;;;17.60;99.90;;;;;;5090033;28;20204;-81
2023/08/22 03:58:37;;;;;;;4.68;3.05;;;17.90;99.90;;;;;;5089721;28;20828;-82
2023/08/22 04:01:04;;;;;;;6.88;3.20;;;18.80;99.90;;;;;;5089921;28;20574;-81
2023/08/22 04:03:31;;;;;;;5.53;3.25;;;18.40;99.90;;;;;;5089445;28;20740;-82
2023/08/22 04:05:59;;;;;;;6.85;3.47;;;17.90;99.90;;;;;;5089967;28;20594;-80
2023/08/22 04:08:26;;;;;;;5.72;3.30;;;18.00;99.90;;;;;;5092746;28;20194;-84
2023/08/22 04:10:53;;;;;;;4.30;2.58;;;18.90;99.90;;;;;;5079036;28;20265;-82
2023/08/22 04:13:20;;;;;;;6.72;3.28;;;18.10;99.90;;;;;;5087437;28;20207;-83
2023/08/22 04:15:46;;;;;;;5.18;3.28;;;17.90;99.90;;;;;;5091726;28;20216;-83
2023/08/22 04:18:13;;;;;;;3.92;3.08;;;18.30;99.90;;;;;;5089804;28;20332;-82
2023/08/22 04:20:42;;;;;;;4.28;3.00;;;18.40;99.90;;;;;;5090019;28;20283;-82
2023/08/22 04:23:10;;;;;;;5.38;3.50;;;17.90;99.90;;;;;;5089801;28;20207;-81
2023/08/22 04:25:37;;;;;;;4.20;3.03;;;18.00;99.90;;;;;;5071203;28;20296;-81
2023/08/22 04:28:05;;;;;;;5.80;3.65;;;17.80;99.90;;;;;;5071866;28;20679;-81
2023/08/22 04:30:32;;;;;;;4.03;3.47;;;17.90;99.90;;;;;;5099391;28;20687;-82
2023/08/22 04:32:59;;;;;;;8.15;3.30;;;18.00;99.90;;;;;;5089648;28;20297;-81
2023/08/22 04:35:26;;;;;;;6.40;3.50;;;17.70;99.90;;;;;;5091019;28;20267;-83
2023/08/22 04:37:52;;;;;;;5.10;3.38;;;18.00;99.90;;;;;;5089191;28;20200;-81
2023/08/22 04:40:19;;;;;;;5.53;3.53;;;18.90;99.90;;;;;;5072338;28;20200;-80
2023/08/22 04:42:46;;;;;;;7.32;4.05;;;18.10;99.90;;;;;;5098996;28;20256;-83
2023/08/22 04:45:13;;;;;;;4.38;3.53;;;18.00;99.90;;;;;;5089914;28;20706;-82
2023/08/22 04:47:39;;;;;;;5.28;3.78;;;18.50;99.90;;;;;;5088459;28;20210;-83
2023/08/22 04:50:08;;;;;;;7.30;4.07;;;18.20;99.90;;;;;;5069906;28;20220;-84
2023/08/22 04:52:35;;;;;;;5.32;3.53;;;18.20;99.90;;;;;;5087324;28;20667;-82
2023/08/22 04:55:03;;;;;;;5.15;3.45;;;18.20;99.90;;;;;;5099250;28;20275;-81
2023/08/22 04:57:31;;;;;;;4.78;3.38;;;18.10;99.90;;;;;;5107809;28;20200;-80
2023/08/22 04:59:57;;;;;;;4.43;3.65;;;18.30;99.90;;;;;;5108619;28;20252;-82
2023/08/22 05:02:24;;;;;;;7.18;3.88;;;18.20;99.90;;;;;;5108852;28;20225;-82
2023/08/22 05:04:51;;;;;;;8.35;3.85;;;18.60;99.90;;;;;;5096403;28;20233;-80
2023/08/22 05:07:18;;;;;;;5.43;3.58;;;18.10;99.90;;;;;;5100284;28;20565;-80
2023/08/22 05:09:45;;;;;;;5.75;3.90;;;18.20;99.90;;;;;;5110386;28;20571;-81
2023/08/22 05:12:12;;;;;;;6.80;3.38;;;18.10;99.90;;;;;;5096758;28;20530;-80
2023/08/22 05:14:39;;;;;;;5.18;3.60;;;18.10;99.90;;;;;;5112387;27;20219;-79
2023/08/22 05:17:06;;;;;;;8.02;3.88;;;18.20;99.90;;;;;;5098523;28;20211;-80
2023/08/22 05:19:33;;;;;;;6.38;3.60;;;18.30;99.90;;;;;;5117806;27;20251;-79
2023/08/22 05:22:00;;;;;;;4.18;2.97;;;18.30;99.90;;;;;;5110020;28;20203;-80
2023/08/22 05:24:27;;;;;;;10.70;4.38;;;18.30;99.90;;;;;;5110586;28;20268;-79
2023/08/22 05:26:53;;;;;;;5.95;3.15;;;18.30;99.90;;;;;;5092408;28;20203;-80
2023/08/22 05:29:20;;;;;;;5.43;3.00;;;18.40;99.90;;;;;;5109960;28;20203;-79
2023/08/22 05:31:47;;;;;;;4.93;3.28;;;18.50;99.90;;;;;;5104885;28;20314;-79
2023/08/22 05:34:14;;;;;;;6.40;3.13;;;18.60;99.90;;;;;;5118899;27;20198;-79
2023/08/22 05:36:41;;;;;;;3.88;2.97;;;18.70;99.90;;;;;;5108819;27;20199;-79
2023/08/22 05:39:08;;;;;;;7.50;3.40;;;18.80;99.90;;;;;;5110910;28;20252;-80
2023/08/22 05:41:34;;;;;;;6.47;3.85;;;18.90;99.90;;;;;;5112749;27;20230;-80
2023/08/22 05:44:01;;;;;;;3.60;2.95;;;19.10;99.90;;;;;;5122935;27;20250;-80
2023/08/22 05:46:28;;;;;;;6.18;2.92;;;19.10;99.90;;;;;;5105409;27;20721;-79
2023/08/22 05:48:55;;;;;;;7.07;3.30;;;19.20;99.90;;;;;;5124194;27;20199;-80
2023/08/22 05:51:22;;;;;;;5.60;3.10;;;19.30;99.90;;;;;;5112207;28;20211;-79
2023/08/22 05:53:49;;;;;;;7.93;3.03;;;19.50;99.90;;;;;;5117421;27;20252;-80
2023/08/22 05:56:15;;;;;;;6.22;2.90;;;19.60;99.90;;;;;;5118597;27;20242;-80
2023/08/22 05:58:42;;;;;;;6.45;3.28;;;19.80;99.90;;;;;;5132916;27;20195;-80
2023/08/22 06:01:09;;;;;;;5.38;3.35;;;20.00;99.90;;;;;;5119337;27;20273;-79
2023/08/22 06:03:38;;;;;;;7.03;3.38;;;20.10;99.90;;;;;;5119127;27;20260;-81
2023/08/22 06:06:05;;;;;;;7.15;3.97;;;20.30;99.90;;;;;;5122771;27;20269;-77
2023/08/22 06:08:31;;;;;;;8.13;4.00;;;20.40;99.90;;;;;;5120227;27;20779;-82
2023/08/22 06:10:58;;;;;;;7.97;3.85;;;20.50;99.90;;;;;;5126515;27;20215;-83
2023/08/22 06:13:25;;;;;;;9.00;4.30;;;20.60;99.90;;;;;;5130352;27;20207;-82
2023/08/22 06:15:52;;;;;;;6.00;4.25;;;20.70;99.90;;;;;;5114718;27;20862;-82
2023/08/22 06:18:18;;;;;;;7.00;3.88;;;20.70;99.90;;;;;;5133302;27;20219;-81
2023/08/22 06:20:46;;;;;;;8.43;4.00;;;20.80;99.90;;;;;;5133341;27;20447;-81
2023/08/22 06:23:13;;;;;;;6.63;4.03;;;20.80;99.90;;;;;;5112717;27;20239;-81
2023/08/22 06:25:39;;;;;;;9.07;4.15;;;20.90;99.90;;;;;;5102692;27;20230;-81
2023/08/22 06:28:06;;;;;;;8.30;4.65;;;21.00;99.90;;;;;;5132181;27;20267;-84
2023/08/22 06:30:33;;;;;;;9.32;4.50;;;21.10;99.90;;;;;;5132529;27;20226;-81
2023/08/22 06:33:00;;;;;;;9.55;4.57;;;21.30;99.90;;;;;;5128446;27;20195;-82
2023/08/22 06:35:28;;;;;;;7.85;4.65;;;21.30;99.90;;;;;;5127550;27;20207;-81
2023/08/22 06:37:55;;;;;;;7.95;4.50;;;21.40;99.90;;;;;;5112464;27;20199;-82
2023/08/22 06:40:22;;;;;;;10.75;4.85;;;21.50;99.90;;;;;;5118764;27;20215;-82
2023/08/22 06:42:49;;;;;;;8.32;4.93;;;21.50;99.90;;;;;;5116188;27;20278;-81
2023/08/22 06:45:16;;;;;;;10.15;4.90;;;21.50;99.90;;;;;;5107272;27;20264;-81
2023/08/22 06:47:43;;;;;;;8.23;4.70;;;21.80;99.90;;;;;;5127383;27;20195;-83
2023/08/22 06:50:10;;;;;;;8.63;4.03;;;22.80;99.90;;;;;;5121106;27;20195;-83
2023/08/22 06:52:37;;;;;;;8.00;4.63;;;23.00;99.90;;;;;;5111726;27;20203;-83
2023/08/22 06:55:05;;;;;;;8.82;4.35;;;24.10;99.90;;;;;;5109722;27;20235;-83
2023/08/22 06:57:31;;;;;;;7.25;3.75;;;24.70;99.90;;;;;;5113958;27;20716;-83
2023/08/22 07:00:16;;;;;;;5.78;3.60;;;25.50;99.90;;;;;;5132412;27;20198;-84
2023/08/22 07:02:45;;;;;;;8.52;4.10;;;25.90;99.90;;;;;;5122565;27;20706;-87
2023/08/22 07:05:14;;;;;;;6.05;3.67;;;26.50;99.90;;;;;;5105264;28;20222;-86
2023/08/22 07:07:41;;;;;;;13.80;3.70;;;26.70;99.90;;;;;;5111431;27;20286;-86
2023/08/22 07:10:11;;;;;;;8.23;3.22;;;27.00;99.90;;;;;;5111787;28;20292;-79
2023/08/22 07:12:38;;;;;;;8.82;3.42;;;26.90;99.90;;;;;;5103811;27;20682;-83
2023/08/22 07:15:07;;;;;;;7.75;3.50;;;27.20;99.90;;;;;;5131926;27;20218;-83
2023/08/22 07:17:34;;;;;;;4.75;2.63;;;27.60;99.90;;;;;;5117400;27;20312;-84
2023/08/22 07:20:01;;;;;;;6.22;3.03;;;28.00;99.90;;;;;;5111627;28;20294;-82
2023/08/22 07:22:28;;;;;;;7.70;2.47;;;28.00;99.90;;;;;;5111852;27;20195;-85
2023/08/22 07:24:55;;;;;;;2.67;1.83;;;28.00;99.90;;;;;;5100979;28;20279;-84
2023/08/22 07:27:22;;;;;;;3.58;1.77;;;28.20;99.90;;;;;;5118703;27;20377;-84
2023/08/22 07:29:49;;;;;;;4.35;1.95;;;28.80;99.90;;;;;;5102268;28;20221;-85
2023/08/22 07:32:18;;;;;;;3.40;1.67;;;28.90;99.90;;;;;;5123560;27;20264;-84
2023/08/22 07:34:46;;;;;;;2.47;1.52;;;29.30;99.90;;;;;;5082908;28;20199;-85
2023/08/22 07:37:13;;;;;;;2.40;1.65;;;29.40;99.90;;;;;;5094144;28;20253;-84
2023/08/22 07:39:44;;;;;;;2.38;1.27;;;29.80;99.90;;;;;;5113485;28;20199;-87
2023/08/22 07:42:11;;;;;;;1.67;1.02;;;29.80;99.90;;;;;;5101091;27;20210;-85
2023/08/22 07:44:38;;;;;;;1.48;0.70;;;29.90;99.90;;;;;;5133880;27;20217;-85
2023/08/22 07:47:07;;;;;;;1.67;0.75;;;29.70;99.90;;;;;;5112212;28;20222;-86
2023/08/22 07:49:34;;;;;;;1.52;0.90;;;29.70;99.90;;;;;;5112876;28;20222;-85
2023/08/22 07:52:02;;;;;;;1.73;1.00;;;29.50;99.90;;;;;;5126710;27;20195;-85
2023/08/22 07:54:29;;;;;;;1.73;0.90;;;29.20;99.90;;;;;;5124765;27;20209;-85
2023/08/22 07:56:56;;;;;;;1.75;1.00;;;28.90;99.90;;;;;;5113627;27;20226;-85
2023/08/22 07:59:42;;;;;;;2.90;0.93;;;28.70;99.90;;;;;;5116979;27;20190;-85
2023/08/22 08:02:09;;;;;;;1.65;0.82;;;28.60;99.90;;;;;;5112533;27;20283;-84
2023/08/22 08:04:38;;;;;;;2.15;1.23;;;28.50;99.90;;;;;;5127599;27;20663;-84
2023/08/22 08:07:04;;;;;;;1.38;0.80;;;28.40;99.90;;;;;;5104131;28;20230;-86
2023/08/22 08:09:34;;;;;;;1.45;1.00;;;28.30;99.90;;;;;;5095024;28;20652;-84
2023/08/22 08:12:05;;;;;;;2.38;0.85;;;28.30;99.90;;;;;;5105144;27;20214;-84
2023/08/22 08:14:32;;;;;;;2.63;0.98;;;27.90;99.90;;;;;;5113404;27;20209;-83
2023/08/22 08:17:00;;;;;;;2.25;1.13;;;27.60;99.90;;;;;;5131676;27;20322;-84
2023/08/22 08:19:28;;;;;;;2.17;1.00;;;27.30;99.90;;;;;;5112602;27;20659;-82
2023/08/22 08:21:55;;;;;;;1.98;1.10;;;27.10;99.90;;;;;;5122814;27;20202;-82
2023/08/22 08:24:22;;;;;;;1.83;0.82;;;26.80;99.90;;;;;;5110404;28;20663;-82
2023/08/22 08:26:49;;;;;;;1.85;1.15;;;26.40;99.90;;;;;;5101074;27;20230;-83
2023/08/22 08:29:17;;;;;;;2.85;1.20;;;26.70;99.90;;;;;;5113055;27;20252;-82
2023/08/22 08:31:44;;;;;;;1.15;0.93;;;25.90;99.90;;;;;;5112816;28;20748;-85
2023/08/22 08:34:11;;;;;;;2.88;1.27;;;25.80;99.90;;;;;;5129828;27;20726;-82
2023/08/22 08:36:38;;;;;;;3.67;1.40;;;25.90;99.90;;;;;;5112469;28;20221;-82
2023/08/22 08:39:05;;;;;;;1.80;1.40;;;25.90;99.90;;;;;;5116731;28;20895;-83
2023/08/22 08:41:33;;;;;;;3.92;1.25;;;25.90;99.90;;;;;;5126078;28;20701;-83
2023/08/22 08:44:01;;;;;;;3.13;1.60;;;26.10;99.90;;;;;;5112631;28;20291;-82
2023/08/22 08:46:29;;;;;;;2.33;1.60;;;26.20;99.90;;;;;;5112250;28;20241;-82
2023/08/22 08:48:57;;;;;;;4.30;1.83;;;26.30;99.90;;;;;;5112607;27;20242;-83
2023/08/22 08:51:25;;;;;;;4.30;2.20;;;26.40;99.90;;;;;;5117055;27;20251;-84
2023/08/22 08:53:54;;;;;;;3.45;1.88;;;26.20;99.90;;;;;;5103167;27;20206;-86
2023/08/22 08:56:21;;;;;;;4.20;2.10;;;26.10;99.90;;;;;;5134959;27;20291;-87
2023/08/22 08:58:50;;;;;;;3.35;1.77;;;26.40;99.90;;;;;;5120706;27;20215;-84
2023/08/22 09:01:18;;;;;;;3.28;1.92;;;26.60;99.90;;;;;;5134879;27;20218;-83
2023/08/22 09:03:46;;;;;;;3.50;1.60;;;26.90;99.90;;;;;;5118720;27;20209;-84
2023/08/22 09:06:13;;;;;;;4.05;1.70;;;26.80;99.90;;;;;;5122155;27;20932;-83
2023/08/22 09:09:00;;;;;;;2.42;1.27;;;26.60;99.90;;;;;;5115541;27;20290;-83
2023/08/22 09:11:27;;;;;;;2.28;1.02;;;26.50;99.90;;;;;;5123378;27;20330;-86
2023/08/22 09:13:55;;;;;;;2.70;1.13;;;26.30;99.90;;;;;;5113889;27;20252;-86
2023/08/22 09:16:24;;;;;;;2.72;1.25;;;25.90;99.90;;;;;;5134616;27;20670;-84
2023/08/22 09:19:02;;;;;;;1.10;1.00;;;26.00;99.90;;;;;;5116224;27;20196;-85
2023/08/22 09:21:29;;;;;;;2.33;1.20;;;26.20;99.90;;;;;;5123201;27;20295;-83
2023/08/22 09:24:09;;;;;;;6.25;1.48;;;26.30;99.90;;;;;;5120194;27;20233;-84
2023/08/22 09:26:37;;;;;;;3.55;1.35;;;26.60;99.90;;;;;;5114387;27;20316;-85
2023/08/22 09:29:05;;;;;;;4.32;1.00;;;26.70;99.90;;;;;;5113628;28;20624;-83
2023/08/22 09:31:34;;;;;;;2.33;0.90;;;26.90;99.90;;;;;;5108181;28;20215;-83
2023/08/22 09:34:09;;;;;;;2.70;1.10;;;27.20;99.90;;;;;;5104325;27;20655;-82
2023/08/22 09:36:46;;;;;;;3.85;0.85;;;27.20;99.90;;;;;;5132123;27;20432;-83
2023/08/22 09:39:18;;;;;;;3.60;1.40;;;27.40;99.90;;;;;;5105205;27;20194;-82
2023/08/22 09:41:50;;;;;;;3.00;0.88;;;27.50;99.90;;;;;;5117632;27;20205;-83
2023/08/22 09:44:22;;;;;;;1.50;1.08;;;27.60;99.90;;;;;;5112228;28;20203;-83
2023/08/22 09:46:51;;;;;;;1.85;0.90;;;27.60;99.90;;;;;;5114075;28;20231;-83
2023/08/22 09:49:18;;;;;;;2.53;1.30;;;27.60;99.90;;;;;;5095738;28;20211;-84
2023/08/22 09:51:46;;;;;;;1.83;1.10;;;27.60;99.90;;;;;;5113196;28;20210;-84
2023/08/22 09:54:14;;;;;;;1.50;1.02;;;27.50;99.90;;;;;;5111928;28;20205;-86
2023/08/22 09:56:42;;;;;;;2.80;0.90;;;27.30;99.90;;;;;;5089403;28;20230;-84
2023/08/22 09:59:15;;;;;;;0.93;0.90;;;27.50;99.90;;;;;;5100273;27;20209;-82
2023/08/22 10:01:42;;;;;;;0.85;0.70;;;26.80;99.90;;;;;;5106910;27;20230;-82
2023/08/22 10:04:10;;;;;;;2.50;1.00;;;26.60;99.90;;;;;;5097087;27;20607;-82
2023/08/22 10:06:38;;;;;;;3.67;0.63;;;26.50;99.90;;;;;;5125509;27;20326;-83
2023/08/22 10:09:10;;;;;;;2.10;0.95;;;26.50;99.90;;;;;;5107552;27;20591;-84
2023/08/22 10:11:44;;;;;;;1.75;0.80;;;26.50;99.90;;;;;;5099010;28;20713;-84
2023/08/22 10:14:39;;;;;;;2.03;0.80;;;26.60;99.90;;;;;;5105828;27;20191;-84
2023/08/22 10:17:12;;;;;;;2.50;1.15;;;26.60;99.90;;;;;;5095618;27;20238;-83
2023/08/22 10:19:40;;;;;;;1.15;0.70;;;26.70;99.90;;;;;;5126160;27;20234;-83
2023/08/22 10:22:10;;;;;;;3.15;1.02;;;27.00;99.90;;;;;;5113637;27;20219;-84
2023/08/22 10:24:38;;;;;;;1.52;1.00;;;27.40;99.90;;;;;;5117788;27;20262;-82
2023/08/22 10:27:12;;;;;;;2.08;0.88;;;27.50;99.90;;;;;;5114623;27;20226;-83
2023/08/22 10:30:06;;;;;;;2.88;1.20;;;27.60;99.90;;;;;;5113294;27;20533;-85
2023/08/22 10:32:33;;;;;;;3.33;1.10;;;27.60;99.90;;;;;;5099321;28;20199;-82
2023/08/22 10:35:19;;;;;;;1.90;0.93;;;27.60;99.90;;;;;;5105437;27;20247;-85
2023/08/22 10:37:48;;;;;;;2.47;1.15;;;27.50;99.90;;;;;;5109129;28;20203;-83
2023/08/22 10:40:36;;;;;;;3.15;1.05;;;27.60;99.90;;;;;;5126896;27;20312;-82
2023/08/22 10:43:11;;;;;;;2.00;0.90;;;27.70;99.90;;;;;;5125055;27;20210;-84
2023/08/22 10:45:50;;;;;;;2.15;1.33;;;27.40;99.90;;;;;;5113464;27;20214;-85
2023/08/22 10:48:24;;;;;;;1.30;1.13;;;27.40;99.90;;;;;;5116897;27;20697;-86
2023/08/22 10:51:03;;;;;;;2.08;0.98;;;27.40;99.90;;;;;;5113955;27;20638;-85
2023/08/22 10:53:43;;;;;;;1.45;0.85;;;27.30;99.90;;;;;;5091207;28;20517;-84
2023/08/22 10:56:35;;;;;;;1.67;1.00;;;27.30;99.90;;;;;;5101363;28;20321;-83
2023/08/22 10:59:09;;;;;;;1.83;0.88;;;26.80;99.90;;;;;;5094207;28;20225;-83
2023/08/22 11:01:37;;;;;;;1.70;0.90;;;26.80;99.90;;;;;;5122660;27;20219;-83
2023/08/22 11:04:08;;;;;;;3.30;1.17;;;26.80;99.90;;;;;;5124057;27;20624;-83
2023/08/22 11:06:37;;;;;;;2.63;0.90;;;26.80;99.90;;;;;;5113605;27;20305;-83
2023/08/22 11:09:04;;;;;;;2.22;0.90;;;27.10;99.90;;;;;;5094488;28;20202;-84
2023/08/22 11:11:35;;;;;;;2.70;1.08;;;26.80;99.90;;;;;;5106913;27;20214;-84
2023/08/22 11:14:02;;;;;;;3.08;1.13;;;27.10;99.90;;;;;;5111103;27;20194;-84
2023/08/22 11:16:28;;;;;;;3.97;1.10;;;27.10;99.90;;;;;;5109880;27;20227;-84
2023/08/22 11:18:56;;;;;;;2.25;0.93;;;27.10;99.90;;;;;;5113970;27;20201;-85
2023/08/22 11:21:24;;;;;;;1.98;0.95;;;27.80;99.90;;;;;;5107767;28;20288;-83
2023/08/22 11:23:52;;;;;;;3.05;1.17;;;27.60;99.90;;;;;;5076792;28;20505;-83
2023/08/22 11:26:22;;;;;;;3.67;1.30;;;28.20;99.90;;;;;;5123765;27;20222;-83
2023/08/22 11:28:49;;;;;;;3.75;1.10;;;27.40;99.90;;;;;;5106166;27;20256;-83
2023/08/22 11:31:17;;;;;;;3.03;1.23;;;27.20;99.90;;;;;;5110710;28;20622;-82
2023/08/22 11:33:49;;;;;;;3.20;0.93;;;27.50;99.90;;;;;;5113826;27;20572;-84
2023/08/22 11:36:21;;;;;;;2.20;1.08;;;27.40;99.90;;;;;;5110023;27;20674;-83
2023/08/22 11:38:53;;;;;;;1.88;1.30;;;27.80;99.90;;;;;;5095088;28;20261;-84
2023/08/22 11:41:22;;;;;;;4.45;1.20;;;27.60;99.90;;;;;;5089625;28;20275;-84
2023/08/22 11:43:58;;;;;;;2.05;1.10;;;27.40;99.90;;;;;;5099182;27;20214;-84
2023/08/22 11:46:27;;;;;;;1.75;1.00;;;27.10;99.90;;;;;;5098793;28;20333;-85
2023/08/22 11:48:54;;;;;;;2.17;1.10;;;27.20;99.90;;;;;;5092770;28;20201;-85
2023/08/22 11:51:28;;;;;;;2.65;1.00;;;27.30;99.90;;;;;;5094276;28;20259;-85
2023/08/22 11:53:55;;;;;;;1.27;0.80;;;26.80;99.90;;;;;;5092373;28;20266;-86
2023/08/22 11:56:23;;;;;;;1.83;1.00;;;26.70;99.90;;;;;;5117988;27;20238;-83
2023/08/22 11:58:54;;;;;;;2.97;0.80;;;26.70;99.90;;;;;;5113128;27;20214;-84
2023/08/22 12:01:22;;;;;;;1.17;0.80;;;26.70;99.90;;;;;;5112790;27;20218;-84
2023/08/22 12:03:55;;;;;;;2.90;1.13;;;26.80;99.90;;;;;;5097483;28;20203;-83
2023/08/22 12:06:22;;;;;;;2.10;0.80;;;27.00;99.90;;;;;;5099735;27;20590;-82
2023/08/22 12:08:57;;;;;;;0.90;0.80;;;27.00;99.90;;;;;;5113953;27;20294;-83
2023/08/22 12:11:25;;;;;;;4.50;1.20;;;27.00;99.90;;;;;;5110552;27;20211;-84
2023/08/22 12:13:52;;;;;;;2.78;1.15;;;27.10;99.90;;;;;;5126548;27;20202;-83
2023/08/22 12:16:21;;;;;;;1.58;1.17;;;27.20;99.90;;;;;;5131529;27;20206;-85
2023/08/22 12:18:48;;;;;;;1.80;0.82;;;27.30;99.90;;;;;;5112794;27;20198;-84
2023/08/22 12:21:15;;;;;;;2.03;1.17;;;27.40;99.90;;;;;;5110092;28;20194;-83
2023/08/22 12:23:42;;;;;;;3.08;1.08;;;27.50;99.90;;;;;;5092856;28;20207;-80
2023/08/22 12:26:09;;;;;;;2.25;1.10;;;27.40;99.90;;;;;;5124672;27;20271;-80
2023/08/22 12:28:36;;;;;;;1.50;0.82;;;27.70;99.90;;;;;;5117346;27;20798;-81
2023/08/22 12:31:02;;;;;;;2.15;0.80;;;27.60;99.90;;;;;;5112903;27;20766;-81
2023/08/22 12:33:29;;;;;;;1.63;0.77;;;27.70;99.90;;;;;;5114386;28;20614;-82
2023/08/22 12:35:56;;;;;;;2.55;0.85;;;27.60;99.90;;;;;;5121246;27;20650;-82
2023/08/22 12:38:24;;;;;;;2.17;0.80;;;27.60;99.90;;;;;;5120034;27;20195;-79
2023/08/22 12:40:51;;;;;;;1.60;0.80;;;27.60;99.90;;;;;;5112698;28;20239;-81
2023/08/22 12:43:18;;;;;;;3.13;1.05;;;27.50;99.90;;;;;;5126444;28;20214;-81
2023/08/22 12:45:45;;;;;;;1.98;1.20;;;27.30;99.90;;;;;;5107957;28;20210;-80
2023/08/22 12:48:12;;;;;;;2.03;1.20;;;27.20;99.90;;;;;;5124269;28;20575;-79
2023/08/22 12:50:39;;;;;;;3.88;1.23;;;27.00;99.90;;;;;;5122274;28;20256;-81
2023/08/22 12:53:09;;;;;;;1.30;0.80;;;26.80;99.90;;;;;;5116158;28;20213;-80